createdAt,value
2023-01-28T18:07:50.755Z,82.90
2023-01-28T18:10:18.171Z,82.99
2023-01-28T18:12:45.088Z,83.31
2023-01-28T18:15:12.254Z,83.42
2023-01-28T18:17:39.208Z,83.21
2023-01-28T18:20:06.814Z,82.66
2023-01-28T18:22:34.027Z,83.21
2023-01-28T18:25:01.011Z,82.46
2023-01-28T18:27:27.924Z,81.76
2023-01-28T18:29:55.123Z,82.34
2023-01-28T18:32:22.024Z,80.97
2023-01-28T18:35:27.296Z,81.49
2023-01-28T18:38:09.536Z,81.91
2023-01-28T18:41:07.889Z,81.70
2023-01-28T18:43:57.754Z,81.19
2023-01-28T18:46:42.101Z,82.83
2023-01-28T18:49:30.146Z,81.91
2023-01-28T18:51:57.038Z,84.68
2023-01-28T18:54:25.050Z,83.54
2023-01-28T18:56:52.121Z,84.53
2023-01-28T18:59:19.293Z,85.67
2023-01-28T19:01:48.150Z,87.21
2023-01-28T19:04:15.925Z,86.76
2023-01-28T19:06:43.147Z,87.03
2023-01-28T19:09:11.847Z,87.98
2023-01-28T19:11:41.046Z,87.90
2023-01-28T19:14:09.344Z,88.62
2023-01-28T19:16:37.519Z,87.73
2023-01-28T19:19:04.933Z,89.48
2023-01-28T19:21:32.868Z,89.56
2023-01-28T19:24:14.900Z,89.04
2023-01-28T19:26:44.938Z,90.64
2023-01-28T19:29:15.638Z,90.27
2023-01-28T19:31:44.602Z,89.67
2023-01-28T19:34:11.811Z,90.12
2023-01-28T19:36:39.142Z,90.69
2023-01-28T19:39:08.415Z,90.65
2023-01-28T19:41:36.732Z,92.27
2023-01-28T19:44:04.469Z,92.21
2023-01-28T19:46:31.868Z,92.43
2023-01-28T19:48:58.861Z,92.55
2023-01-28T19:51:26.054Z,92.17
2023-01-28T19:53:54.327Z,92.15
2023-01-28T19:56:23.587Z,93.19
2023-01-28T19:58:50.575Z,92.68
2023-01-28T20:01:20.241Z,91.93
2023-01-28T20:03:52.891Z,93.13
2023-01-28T20:06:19.988Z,92.55
2023-01-28T20:08:52.133Z,92.70
2023-01-28T20:11:19.681Z,93.88
2023-01-28T20:13:47.729Z,94.12
2023-01-28T20:16:19.524Z,93.51
2023-01-28T20:18:52.298Z,94.08
2023-01-28T20:21:20.138Z,94.92
2023-01-28T20:23:48.449Z,95.51
2023-01-28T20:26:16.091Z,96.20
2023-01-28T20:28:43.015Z,95.57
2023-01-28T20:31:11.392Z,95.68
2023-01-28T20:33:38.575Z,96.98
2023-01-28T20:36:10.234Z,97.08
2023-01-28T20:38:39.333Z,96.27
2023-01-28T20:41:10.557Z,95.68
2023-01-28T20:43:39.619Z,96.21
2023-01-28T20:46:09.216Z,95.99
2023-01-28T20:48:36.157Z,96.41
2023-01-28T20:51:11.477Z,94.98
2023-01-28T20:53:38.869Z,94.33
2023-01-28T20:56:06.243Z,94.23
2023-01-28T20:58:34.880Z,94.56
2023-01-28T21:01:02.194Z,93.85
2023-01-28T21:03:29.236Z,93.40
2023-01-28T21:05:56.167Z,93.78
2023-01-28T21:08:23.642Z,90.48
2023-01-28T21:10:50.701Z,91.43
2023-01-28T21:13:17.801Z,91.89
2023-01-28T21:15:52.872Z,92.73
2023-01-28T21:18:19.828Z,92.92
2023-01-28T21:20:46.937Z,92.43
2023-01-28T21:23:15.192Z,92.78
2023-01-28T21:25:43.779Z,92.19
2023-01-28T21:28:11.336Z,92.29
2023-01-28T21:30:38.970Z,91.36
2023-01-28T21:33:06.685Z,91.64
2023-01-28T21:35:41.127Z,91.32
2023-01-28T21:38:08.330Z,92.04
2023-01-28T21:40:36.101Z,91.40
2023-01-28T21:43:03.484Z,90.78
2023-01-28T21:45:30.645Z,91.36
2023-01-28T21:47:57.724Z,90.37
2023-01-28T21:50:24.648Z,90.41
2023-01-28T21:52:51.905Z,90.13
2023-01-28T21:55:19.746Z,89.36
2023-01-28T21:57:46.643Z,88.42
2023-01-28T22:00:14.140Z,88.56
2023-01-28T22:02:41.448Z,89.02
2023-01-28T22:05:08.634Z,87.63
2023-01-28T22:07:35.598Z,88.89
2023-01-28T22:10:02.562Z,87.56
2023-01-28T22:12:29.497Z,88.36
2023-01-28T22:14:56.710Z,87.08
2023-01-28T22:17:23.661Z,88.67
2023-01-28T22:19:50.615Z,88.26
2023-01-28T22:22:18.391Z,88.09
2023-01-28T22:24:45.388Z,88.97
2023-01-28T22:27:12.327Z,86.50
2023-01-28T22:29:39.246Z,87.05
2023-01-28T22:32:06.200Z,87.67
2023-01-28T22:34:33.209Z,88.55
2023-01-28T22:37:00.085Z,86.79
2023-01-28T22:39:26.986Z,86.53
2023-01-28T22:41:53.880Z,87.70
2023-01-28T22:44:20.811Z,87.61
2023-01-28T22:46:48.405Z,87.85
2023-01-28T22:49:15.426Z,88.31
2023-01-28T22:51:42.660Z,86.53
2023-01-28T22:54:11.756Z,87.53
2023-01-28T22:56:39.063Z,89.25
2023-01-28T22:59:06.323Z,87.57
2023-01-28T23:01:33.550Z,88.04
2023-01-28T23:04:00.557Z,86.59
2023-01-28T23:06:27.999Z,86.49
2023-01-28T23:08:56.563Z,84.77
2023-01-28T23:11:28.299Z,83.40
2023-01-28T23:14:20.250Z,85.37
2023-01-28T23:17:06.071Z,87.80
2023-01-28T23:19:52.251Z,87.26
2023-01-28T23:22:43.874Z,87.27
2023-01-28T23:25:11.715Z,87.53
2023-01-28T23:27:38.761Z,87.25
2023-01-28T23:30:10.367Z,87.61
2023-01-28T23:32:53.138Z,88.18
2023-01-28T23:35:20.389Z,86.69
2023-01-28T23:37:48.068Z,88.69
2023-01-28T23:40:16.462Z,86.97
2023-01-28T23:42:48.351Z,87.98
2023-01-28T23:45:15.614Z,88.54
2023-01-28T23:47:42.634Z,89.17
2023-01-28T23:50:10.604Z,90.52
2023-01-28T23:52:37.630Z,91.63
2023-01-28T23:55:05.034Z,91.66
2023-01-28T23:57:32.058Z,92.43
2023-01-28T23:59:58.923Z,92.99
